PWSweather.com
Personal Weather Stations
Station Observations

SkegnessGB

Lat: 53.147585, Lon: 0.345774

Elevation: 18

Station Type: Fine Offset WH3080

http://www.skegnessweather.info/

High Low Average
Temperature 52.9°F11.6°C 39.7°F4.3°C 47.1°F8.4°C
Dew Point 50.9°F10.5°C 39.7°F4.3°C 46.2°F7.9°C
Winds 15.2 mph 24.5 kmh 1.3 mph 2.1 kmh 9.0 mph S14.5 kmh S
Wind Gusts 17.5 mph28.2 kmh 2.5 mph4.0 kmh 10.0 mph16.1 kmh
Humidity 100% 88% 97%
Pressure 29.38 in994.9 mb 29.25 in990.5 mb -
Precipitation 0.27 in6.9 mm - -
Hour Temp Dew Point Humidity Winds Wind Gusts Pressure Precip Precip Rate Daily Precip Total
12:00 AM 40.3°F4.6°C 40.3°F4.6°C 100% 5.0 mph S8.0 kmh S 8.4 mph13.5 kmh 29.36 in994.2 mb 0.04 in1.0 mm 0.00 in0.0 mm 0.04 in1.0 mm
12:10 AM 40.3°F4.6°C 40.3°F4.6°C 100% 4.7 mph W7.6 kmh W 6.6 mph10.6 kmh 29.35 in993.9 mb 0.02 in0.5 mm 0.00 in0.0 mm 0.04 in1.0 mm
12:20 AM 40.3°F4.6°C 40.3°F4.6°C 100% 4.4 mph SW7.1 kmh SW 6.6 mph10.6 kmh 29.35 in993.9 mb 0.04 in1.0 mm 0.12 in3.0 mm 0.01 in0.3 mm
12:30 AM 40.3°F4.6°C 40.3°F4.6°C 100% 4.6 mph SW7.4 kmh SW 6.6 mph10.6 kmh 29.35 in993.9 mb 0.04 in1.0 mm 0.00 in0.0 mm 0.01 in0.3 mm
12:40 AM 40.3°F4.6°C 40.3°F4.6°C 100% 4.7 mph WSW7.6 kmh WSW 6.6 mph10.6 kmh 29.35 in993.9 mb 0.04 in1.0 mm 0.00 in0.0 mm 0.02 in0.5 mm
12:50 AM 40.3°F4.6°C 40.3°F4.6°C 100% 4.6 mph SSW7.4 kmh SSW 10.1 mph16.3 kmh 29.34 in993.6 mb 0.04 in1.0 mm 0.00 in0.0 mm 0.02 in0.5 mm
01:00 AM 40.3°F4.6°C 40.3°F4.6°C 100% 5.1 mph SSE8.2 kmh SSE 10.1 mph16.3 kmh 29.34 in993.6 mb 0.02 in0.5 mm 0.00 in0.0 mm 0.02 in0.5 mm
01:10 AM 40.1°F4.5°C 40.1°F4.5°C 100% 3.2 mph WNW5.1 kmh WNW 4.2 mph6.8 kmh 29.33 in993.2 mb 0.02 in0.5 mm 0.00 in0.0 mm 0.02 in0.5 mm
01:20 AM 40.1°F4.5°C 40.1°F4.5°C 100% 5.1 mph E8.2 kmh E 7.6 mph12.2 kmh 29.33 in993.2 mb 0.01 in0.3 mm 0.00 in0.0 mm 0.02 in0.5 mm
01:30 AM 40.1°F4.5°C 40.1°F4.5°C 100% 3.6 mph S5.8 kmh S 8.4 mph13.5 kmh 29.33 in993.2 mb 0.01 in0.3 mm 0.00 in0.0 mm 0.02 in0.5 mm
01:40 AM 39.9°F4.4°C 39.9°F4.4°C 100% 4.0 mph SW6.4 kmh SW 5.9 mph9.5 kmh 29.33 in993.2 mb 0.00 in0.0 mm 0.00 in0.0 mm 0.02 in0.5 mm
01:50 AM 39.7°F4.3°C 39.7°F4.3°C 100% 3.6 mph W5.8 kmh W 4.9 mph7.9 kmh 29.32 in992.9 mb 0.00 in0.0 mm 0.00 in0.0 mm 0.02 in0.5 mm
02:00 AM 39.9°F4.4°C 39.9°F4.4°C 100% 3.0 mph W4.8 kmh W 8.4 mph13.5 kmh 29.32 in992.9 mb 0.00 in0.0 mm 0.00 in0.0 mm 0.02 in0.5 mm
02:10 AM 40.1°F4.5°C 40.1°F4.5°C 100% 4.0 mph SE6.4 kmh SE 8.4 mph13.5 kmh 29.32 in992.9 mb 0.00 in0.0 mm 0.00 in0.0 mm 0.02 in0.5 mm
02:20 AM 40.1°F4.5°C 40.1°F4.5°C 100% 3.8 mph SW6.1 kmh SW 6.6 mph10.6 kmh 29.32 in992.9 mb 0.00 in0.0 mm 0.00 in0.0 mm 0.02 in0.5 mm
02:30 AM 40.1°F4.5°C 40.1°F4.5°C 100% 3.4 mph SE5.5 kmh SE 5.9 mph9.5 kmh 29.31 in992.6 mb 0.01 in0.3 mm 0.06 in1.5 mm 0.04 in1.0 mm
02:40 AM 40.1°F4.5°C 40.1°F4.5°C 100% 3.3 mph S5.3 kmh S 5.9 mph9.5 kmh 29.31 in992.6 mb 0.01 in0.3 mm 0.00 in0.0 mm 0.04 in1.0 mm
02:50 AM 40.3°F4.6°C 40.3°F4.6°C 100% 3.0 mph SSE4.8 kmh SSE 4.9 mph7.9 kmh 29.30 in992.2 mb 0.01 in0.3 mm 0.00 in0.0 mm 0.04 in1.0 mm
03:00 AM 40.6°F4.8°C 40.6°F4.8°C 100% 1.7 mph SE2.7 kmh SE 3.4 mph5.5 kmh 29.29 in991.9 mb 0.01 in0.3 mm 0.00 in0.0 mm 0.04 in1.0 mm
03:10 AM 40.8°F4.9°C 40.8°F4.9°C 100% 1.5 mph NE2.4 kmh NE 3.4 mph5.5 kmh 29.29 in991.9 mb 0.02 in0.5 mm 0.06 in1.5 mm 0.05 in1.3 mm
03:20 AM 41.0°F5.0°C 41.0°F5.0°C 100% 3.6 mph SE5.8 kmh SE 5.9 mph9.5 kmh 29.29 in991.9 mb 0.04 in1.0 mm 0.12 in3.0 mm 0.06 in1.5 mm
03:30 AM 41.4°F5.2°C 41.4°F5.2°C 100% 5.0 mph SSE8.0 kmh SSE 7.6 mph12.2 kmh 29.29 in991.9 mb 0.02 in0.5 mm 0.00 in0.0 mm 0.06 in1.5 mm
03:40 AM 41.9°F5.5°C 41.9°F5.5°C 100% 5.9 mph SSE9.5 kmh SSE 7.6 mph12.2 kmh 29.28 in991.5 mb 0.04 in1.0 mm 0.12 in3.0 mm 0.07 in1.8 mm
03:50 AM 43.3°F6.3°C 42.8°F6.0°C 98% 9.2 mph S14.8 kmh S 10.1 mph16.3 kmh 29.28 in991.5 mb 0.04 in1.0 mm 0.00 in0.0 mm 0.07 in1.8 mm
04:00 AM 44.1°F6.7°C 43.8°F6.6°C 99% 10.1 mph S16.3 kmh S 10.8 mph17.4 kmh 29.28 in991.5 mb 0.05 in1.3 mm 0.01 in0.3 mm 0.08 in2.0 mm
04:10 AM 44.6°F7.0°C 44.3°F6.8°C 99% 11.4 mph SSE18.3 kmh SSE 13.3 mph21.4 kmh 29.27 in991.2 mb 0.05 in1.3 mm 0.00 in0.0 mm 0.09 in2.3 mm
04:20 AM 44.8°F7.1°C 44.8°F7.1°C 100% 13.0 mph S20.9 kmh S 12.5 mph20.1 kmh 29.27 in991.2 mb 0.06 in1.5 mm 0.06 in1.5 mm 0.12 in3.0 mm
04:30 AM 45.1°F7.3°C 45.1°F7.3°C 100% 12.0 mph S19.3 kmh S 14.3 mph23.0 kmh 29.27 in991.2 mb 0.06 in1.5 mm 0.00 in0.0 mm 0.12 in3.0 mm
04:40 AM 45.3°F7.4°C 45.3°F7.4°C 100% 13.1 mph SSE21.1 kmh SSE 15.0 mph24.1 kmh 29.26 in990.9 mb 0.06 in1.5 mm 0.00 in0.0 mm 0.13 in3.3 mm
04:50 AM 45.5°F7.5°C 45.5°F7.5°C 100% 13.7 mph SE22.0 kmh SE 15.0 mph24.1 kmh 29.26 in990.9 mb 0.07 in1.8 mm 0.06 in1.5 mm 0.14 in3.6 mm
05:00 AM 45.5°F7.5°C 45.5°F7.5°C 100% 11.9 mph SE19.2 kmh SE 11.8 mph19.0 kmh 29.25 in990.5 mb 0.06 in1.5 mm 0.00 in0.0 mm 0.14 in3.6 mm
05:10 AM 45.3°F7.4°C 45.3°F7.4°C 100% 12.5 mph S20.1 kmh S 10.8 mph17.4 kmh 29.25 in990.5 mb 0.05 in1.3 mm 0.00 in0.0 mm 0.14 in3.6 mm
05:20 AM 45.5°F7.5°C 45.5°F7.5°C 100% 12.4 mph S20.0 kmh S 13.3 mph21.4 kmh 29.26 in990.9 mb 0.02 in0.5 mm 0.00 in0.0 mm 0.14 in3.6 mm
05:30 AM 45.3°F7.4°C 45.3°F7.4°C 100% 11.5 mph S18.5 kmh S 13.3 mph21.4 kmh 29.26 in990.9 mb 0.04 in1.0 mm 0.12 in3.0 mm 0.15 in3.8 mm
05:40 AM 45.7°F7.6°C 45.7°F7.6°C 100% 11.3 mph S18.2 kmh S 11.8 mph19.0 kmh 29.26 in990.9 mb 0.02 in0.5 mm 0.00 in0.0 mm 0.15 in3.8 mm
05:50 AM 46.0°F7.8°C 46.0°F7.8°C 100% 11.7 mph SE18.8 kmh SE 13.3 mph21.4 kmh 29.26 in990.9 mb 0.01 in0.3 mm 0.00 in0.0 mm 0.15 in3.8 mm
06:00 AM 46.0°F7.8°C 46.0°F7.8°C 100% 10.6 mph S17.1 kmh S 12.5 mph20.1 kmh 29.26 in990.9 mb 0.02 in0.5 mm 0.01 in0.3 mm 0.17 in4.3 mm
06:10 AM 46.0°F7.8°C 46.0°F7.8°C 100% 11.9 mph S19.2 kmh S 15.0 mph24.1 kmh 29.26 in990.9 mb 0.02 in0.5 mm 0.00 in0.0 mm 0.17 in4.3 mm
06:20 AM 46.0°F7.8°C 46.0°F7.8°C 100% 13.7 mph S22.0 kmh S 12.5 mph20.1 kmh 29.26 in990.9 mb 0.02 in0.5 mm 0.00 in0.0 mm 0.17 in4.3 mm
06:30 AM 46.0°F7.8°C 46.0°F7.8°C 100% 14.0 mph SSE22.5 kmh SSE 13.3 mph21.4 kmh 29.26 in990.9 mb 0.01 in0.3 mm 0.00 in0.0 mm 0.17 in4.3 mm
06:40 AM 46.0°F7.8°C 46.0°F7.8°C 100% 12.8 mph S20.6 kmh S 14.3 mph23.0 kmh 29.26 in990.9 mb 0.04 in1.0 mm 0.18 in4.6 mm 0.19 in4.8 mm
06:50 AM 46.0°F7.8°C 46.0°F7.8°C 100% 13.0 mph S20.9 kmh S 12.5 mph20.1 kmh 29.27 in991.2 mb 0.04 in1.0 mm 0.00 in0.0 mm 0.19 in4.8 mm
07:00 AM 46.0°F7.8°C 46.0°F7.8°C 100% 12.2 mph S19.6 kmh S 12.5 mph20.1 kmh 29.26 in990.9 mb 0.04 in1.0 mm 0.00 in0.0 mm 0.20 in5.1 mm
07:10 AM 46.0°F7.8°C 46.0°F7.8°C 100% 9.6 mph ESE15.4 kmh ESE 13.3 mph21.4 kmh 29.27 in991.2 mb 0.05 in1.3 mm 0.06 in1.5 mm 0.21 in5.3 mm
07:20 AM 46.0°F7.8°C 46.0°F7.8°C 100% 10.6 mph SSW17.1 kmh SSW 10.1 mph16.3 kmh 29.27 in991.2 mb 0.05 in1.3 mm 0.00 in0.0 mm 0.21 in5.3 mm
07:30 AM 46.2°F7.9°C 46.2°F7.9°C 100% 11.6 mph SW18.7 kmh SW 17.5 mph28.2 kmh 29.27 in991.2 mb 0.05 in1.3 mm 0.00 in0.0 mm 0.22 in5.6 mm
07:40 AM 46.0°F7.8°C 46.0°F7.8°C 100% 11.6 mph SSE18.7 kmh SSE 11.8 mph19.0 kmh 29.27 in991.2 mb 0.05 in1.3 mm 0.00 in0.0 mm 0.24 in6.1 mm
07:50 AM 46.0°F7.8°C 46.0°F7.8°C 100% 10.0 mph S16.1 kmh S 11.8 mph19.0 kmh 29.27 in991.2 mb 0.05 in1.3 mm 0.00 in0.0 mm 0.24 in6.1 mm
08:00 AM 46.2°F7.9°C 46.2°F7.9°C 100% 11.0 mph S17.7 kmh S 11.8 mph19.0 kmh 29.28 in991.5 mb 0.05 in1.3 mm 0.00 in0.0 mm 0.25 in6.4 mm
08:10 AM 46.4°F8.0°C 46.4°F8.0°C 100% 10.6 mph SW17.1 kmh SW 10.1 mph16.3 kmh 29.28 in991.5 mb 0.04 in1.0 mm 0.00 in0.0 mm 0.25 in6.4 mm
08:20 AM 46.4°F8.0°C 46.4°F8.0°C 100% 10.7 mph S17.2 kmh S 11.8 mph19.0 kmh 29.28 in991.5 mb 0.05 in1.3 mm 0.06 in1.5 mm 0.26 in6.6 mm
08:30 AM 46.2°F7.9°C 46.2°F7.9°C 100% 10.0 mph S16.1 kmh S 12.5 mph20.1 kmh 29.29 in991.9 mb 0.04 in1.0 mm 0.00 in0.0 mm 0.26 in6.6 mm
08:40 AM 46.4°F8.0°C 46.4°F8.0°C 100% 10.1 mph SSE16.3 kmh SSE 11.8 mph19.0 kmh 29.29 in991.9 mb 0.02 in0.5 mm 0.00 in0.0 mm 0.26 in6.6 mm
08:50 AM 46.6°F8.1°C 46.6°F8.1°C 100% 7.7 mph SW12.4 kmh SW 11.8 mph19.0 kmh 29.29 in991.9 mb 0.02 in0.5 mm 0.00 in0.0 mm 0.26 in6.6 mm
09:00 AM 46.6°F8.1°C 46.6°F8.1°C 100% 8.0 mph S12.9 kmh S 10.1 mph16.3 kmh 29.29 in991.9 mb 0.01 in0.3 mm 0.00 in0.0 mm 0.26 in6.6 mm
09:10 AM 46.8°F8.2°C 46.8°F8.2°C 100% 12.3 mph S19.8 kmh S 10.8 mph17.4 kmh 29.29 in991.9 mb 0.01 in0.3 mm 0.00 in0.0 mm 0.26 in6.6 mm
09:20 AM 47.5°F8.6°C 47.5°F8.6°C 100% 10.4 mph SSW16.7 kmh SSW 10.1 mph16.3 kmh 29.29 in991.9 mb 0.00 in0.0 mm 0.00 in0.0 mm 0.26 in6.6 mm
09:30 AM 47.8°F8.8°C 47.8°F8.8°C 100% 11.1 mph S17.9 kmh S 11.8 mph19.0 kmh 29.28 in991.5 mb 0.00 in0.0 mm 0.00 in0.0 mm 0.26 in6.6 mm
09:40 AM 48.0°F8.9°C 48.0°F8.9°C 100% 12.6 mph SSE20.3 kmh SSE 11.8 mph19.0 kmh 29.29 in991.9 mb 0.00 in0.0 mm 0.00 in0.0 mm 0.26 in6.6 mm
09:50 AM 48.0°F8.9°C 48.0°F8.9°C 100% 11.5 mph SSE18.5 kmh SSE 11.8 mph19.0 kmh 29.29 in991.9 mb 0.00 in0.0 mm 0.00 in0.0 mm 0.26 in6.6 mm
10:00 AM 48.0°F8.9°C 48.0°F8.9°C 100% 12.3 mph S19.8 kmh S 12.5 mph20.1 kmh 29.30 in992.2 mb 0.00 in0.0 mm 0.00 in0.0 mm 0.26 in6.6 mm
10:10 AM 48.2°F9.0°C 48.2°F9.0°C 100% 10.6 mph S17.1 kmh S 11.8 mph19.0 kmh 29.30 in992.2 mb 0.00 in0.0 mm 0.00 in0.0 mm 0.26 in6.6 mm
10:20 AM 48.6°F9.2°C 48.6°F9.2°C 100% 12.5 mph S20.1 kmh S 14.3 mph23.0 kmh 29.29 in991.9 mb 0.00 in0.0 mm 0.00 in0.0 mm 0.26 in6.6 mm
10:30 AM 49.3°F9.6°C 49.3°F9.6°C 100% 10.5 mph SSE16.9 kmh SSE 10.8 mph17.4 kmh 29.29 in991.9 mb 0.00 in0.0 mm 0.00 in0.0 mm 0.26 in6.6 mm
10:40 AM 49.5°F9.7°C 49.5°F9.7°C 100% 9.9 mph S15.9 kmh S 11.8 mph19.0 kmh 29.30 in992.2 mb 0.00 in0.0 mm 0.00 in0.0 mm 0.26 in6.6 mm
10:50 AM 49.6°F9.8°C 49.6°F9.8°C 100% 9.8 mph S15.8 kmh S 10.1 mph16.3 kmh 29.30 in992.2 mb 0.01 in0.3 mm 0.06 in1.5 mm 0.27 in6.9 mm
11:00 AM 49.8°F9.9°C 49.8°F9.9°C 100% 9.1 mph SSE14.6 kmh SSE 8.4 mph13.5 kmh 29.30 in992.2 mb 0.01 in0.3 mm 0.00 in0.0 mm 0.27 in6.9 mm
11:10 AM 50.2°F10.1°C 50.2°F10.1°C 100% 9.2 mph ESE14.8 kmh ESE 10.8 mph17.4 kmh 29.30 in992.2 mb 0.01 in0.3 mm 0.00 in0.0 mm 0.27 in6.9 mm
11:20 AM 50.0°F10.0°C 50.0°F10.0°C 100% 10.2 mph S16.4 kmh S 11.8 mph19.0 kmh 29.30 in992.2 mb 0.01 in0.3 mm 0.00 in0.0 mm 0.27 in6.9 mm
11:30 AM 50.4°F10.2°C 50.4°F10.2°C 100% 10.2 mph S16.4 kmh S 11.8 mph19.0 kmh 29.30 in992.2 mb 0.01 in0.3 mm 0.00 in0.0 mm 0.27 in6.9 mm
11:40 AM 50.5°F10.3°C 50.3°F10.2°C 99% 11.2 mph S18.0 kmh S 11.8 mph19.0 kmh 29.31 in992.6 mb 0.01 in0.3 mm 0.00 in0.0 mm 0.27 in6.9 mm
11:50 AM 51.4°F10.8°C 50.9°F10.5°C 98% 11.8 mph SSW19.0 kmh SSW 11.8 mph19.0 kmh 29.30 in992.2 mb 0.00 in0.0 mm 0.00 in0.0 mm 0.27 in6.9 mm
12:00 PM 52.5°F11.4°C 50.6°F10.3°C 93% 13.0 mph S20.9 kmh S 13.3 mph21.4 kmh 29.31 in992.6 mb 0.00 in0.0 mm 0.00 in0.0 mm 0.27 in6.9 mm
12:10 PM 52.7°F11.5°C 50.1°F10.1°C 91% 13.3 mph S21.4 kmh S 15.0 mph24.1 kmh 29.31 in992.6 mb 0.00 in0.0 mm 0.00 in0.0 mm 0.27 in6.9 mm
12:20 PM 52.5°F11.4°C 49.7°F9.8°C 90% 11.1 mph S17.9 kmh S 10.8 mph17.4 kmh 29.31 in992.6 mb 0.00 in0.0 mm 0.00 in0.0 mm 0.27 in6.9 mm
12:30 PM 52.3°F11.3°C 49.5°F9.7°C 90% 11.6 mph S18.7 kmh S 10.8 mph17.4 kmh 29.31 in992.6 mb 0.00 in0.0 mm 0.00 in0.0 mm 0.27 in6.9 mm
12:40 PM 52.3°F11.3°C 49.2°F9.6°C 89% 10.0 mph SSW16.1 kmh SSW 12.5 mph20.1 kmh 29.30 in992.2 mb 0.00 in0.0 mm 0.00 in0.0 mm 0.27 in6.9 mm
12:50 PM 52.5°F11.4°C 49.4°F9.7°C 89% 11.0 mph SW17.7 kmh SW 12.5 mph20.1 kmh 29.30 in992.2 mb 0.00 in0.0 mm 0.00 in0.0 mm 0.27 in6.9 mm
01:00 PM 52.9°F11.6°C 49.7°F9.8°C 89% 7.9 mph SSW12.7 kmh SSW 10.8 mph17.4 kmh 29.30 in992.2 mb 0.00 in0.0 mm 0.00 in0.0 mm 0.27 in6.9 mm
01:10 PM 52.3°F11.3°C 48.9°F9.4°C 88% 7.4 mph NW11.9 kmh NW 9.1 mph14.6 kmh 29.29 in991.9 mb 0.00 in0.0 mm 0.00 in0.0 mm 0.27 in6.9 mm
01:20 PM 52.2°F11.2°C 49.0°F9.4°C 89% 11.4 mph S18.3 kmh S 14.3 mph23.0 kmh 29.30 in992.2 mb 0.00 in0.0 mm 0.00 in0.0 mm 0.27 in6.9 mm
01:30 PM 52.0°F11.1°C 48.8°F9.3°C 89% 11.5 mph SSE18.5 kmh SSE 12.5 mph20.1 kmh 29.30 in992.2 mb 0.00 in0.0 mm 0.00 in0.0 mm 0.27 in6.9 mm
01:40 PM 51.6°F10.9°C 49.7°F9.8°C 93% 11.5 mph SSE18.5 kmh SSE 12.5 mph20.1 kmh 29.30 in992.2 mb 0.00 in0.0 mm 0.00 in0.0 mm 0.27 in6.9 mm
01:50 PM 51.4°F10.8°C 49.5°F9.7°C 93% 13.2 mph SSE21.2 kmh SSE 13.3 mph21.4 kmh 29.30 in992.2 mb 0.00 in0.0 mm 0.00 in0.0 mm 0.27 in6.9 mm
02:00 PM 51.3°F10.7°C 49.3°F9.6°C 93% 10.4 mph SW16.7 kmh SW 14.3 mph23.0 kmh 29.30 in992.2 mb 0.00 in0.0 mm 0.00 in0.0 mm 0.27 in6.9 mm
02:10 PM 51.3°F10.7°C 49.3°F9.6°C 93% 8.4 mph SW13.5 kmh SW 10.8 mph17.4 kmh 29.30 in992.2 mb 0.00 in0.0 mm 0.00 in0.0 mm 0.27 in6.9 mm
02:20 PM 50.9°F10.5°C 48.9°F9.4°C 93% 9.1 mph S14.6 kmh S 10.8 mph17.4 kmh 29.30 in992.2 mb 0.00 in0.0 mm 0.00 in0.0 mm 0.27 in6.9 mm
02:30 PM 50.9°F10.5°C 49.2°F9.6°C 94% 8.6 mph SSE13.8 kmh SSE 9.1 mph14.6 kmh 29.30 in992.2 mb 0.00 in0.0 mm 0.00 in0.0 mm 0.27 in6.9 mm
02:40 PM 50.9°F10.5°C 49.2°F9.6°C 94% 10.1 mph S16.3 kmh S 10.1 mph16.3 kmh 29.30 in992.2 mb 0.00 in0.0 mm 0.00 in0.0 mm 0.27 in6.9 mm
02:50 PM 51.1°F10.6°C 49.7°F9.8°C 95% 11.6 mph S18.7 kmh S 11.8 mph19.0 kmh 29.30 in992.2 mb 0.00 in0.0 mm 0.00 in0.0 mm 0.27 in6.9 mm
03:00 PM 51.3°F10.7°C 49.9°F9.9°C 95% 10.8 mph SSE17.4 kmh SSE 11.8 mph19.0 kmh 29.29 in991.9 mb 0.00 in0.0 mm 0.00 in0.0 mm 0.27 in6.9 mm
03:10 PM 51.4°F10.8°C 50.1°F10.1°C 95% 14.8 mph S23.8 kmh S 11.8 mph19.0 kmh 29.29 in991.9 mb 0.00 in0.0 mm 0.00 in0.0 mm 0.27 in6.9 mm
03:20 PM 51.4°F10.8°C 49.8°F9.9°C 94% 15.2 mph S24.5 kmh S 16.7 mph26.9 kmh 29.30 in992.2 mb 0.00 in0.0 mm 0.00 in0.0 mm 0.27 in6.9 mm
03:30 PM 51.3°F10.7°C 49.3°F9.6°C 93% 11.4 mph SE18.3 kmh SE 15.0 mph24.1 kmh 29.30 in992.2 mb 0.00 in0.0 mm 0.00 in0.0 mm 0.27 in6.9 mm
03:40 PM 51.1°F10.6°C 49.1°F9.5°C 93% 10.9 mph S17.5 kmh S 11.8 mph19.0 kmh 29.30 in992.2 mb 0.00 in0.0 mm 0.00 in0.0 mm 0.27 in6.9 mm
03:50 PM 50.9°F10.5°C 48.9°F9.4°C 93% 12.6 mph S20.3 kmh S 12.5 mph20.1 kmh 29.30 in992.2 mb 0.00 in0.0 mm 0.00 in0.0 mm 0.27 in6.9 mm
04:00 PM 51.1°F10.6°C 49.4°F9.7°C 94% 13.9 mph S22.4 kmh S 16.0 mph25.7 kmh 29.30 in992.2 mb 0.00 in0.0 mm 0.00 in0.0 mm 0.27 in6.9 mm
04:10 PM 51.3°F10.7°C 49.6°F9.8°C 94% 14.1 mph SSE22.7 kmh SSE 15.0 mph24.1 kmh 29.30 in992.2 mb 0.00 in0.0 mm 0.00 in0.0 mm 0.27 in6.9 mm
04:20 PM 51.6°F10.9°C 49.7°F9.8°C 93% 14.0 mph S22.5 kmh S 15.0 mph24.1 kmh 29.30 in992.2 mb 0.00 in0.0 mm 0.00 in0.0 mm 0.27 in6.9 mm
04:30 PM 51.6°F10.9°C 49.7°F9.8°C 93% 13.6 mph SSW21.9 kmh SSW 15.0 mph24.1 kmh 29.30 in992.2 mb 0.00 in0.0 mm 0.00 in0.0 mm 0.27 in6.9 mm
04:40 PM 51.6°F10.9°C 49.7°F9.8°C 93% 12.3 mph SSE19.8 kmh SSE 10.8 mph17.4 kmh 29.30 in992.2 mb 0.00 in0.0 mm 0.00 in0.0 mm 0.27 in6.9 mm
04:50 PM 51.6°F10.9°C 49.7°F9.8°C 93% 12.3 mph SSE19.8 kmh SSE 14.3 mph23.0 kmh 29.30 in992.2 mb 0.00 in0.0 mm 0.00 in0.0 mm 0.27 in6.9 mm
05:00 PM 51.3°F10.7°C 49.3°F9.6°C 93% 13.4 mph SSE21.6 kmh SSE 16.0 mph25.7 kmh 29.31 in992.6 mb 0.00 in0.0 mm 0.00 in0.0 mm 0.27 in6.9 mm
05:10 PM 51.1°F10.6°C 49.1°F9.5°C 93% 11.7 mph SW18.8 kmh SW 11.8 mph19.0 kmh 29.31 in992.6 mb 0.00 in0.0 mm 0.00 in0.0 mm 0.27 in6.9 mm
05:20 PM 51.1°F10.6°C 49.1°F9.5°C 93% 11.2 mph S18.0 kmh S 11.8 mph19.0 kmh 29.30 in992.2 mb 0.00 in0.0 mm 0.00 in0.0 mm 0.27 in6.9 mm
05:30 PM 50.9°F10.5°C 48.9°F9.4°C 93% 9.9 mph SSW15.9 kmh SSW 11.8 mph19.0 kmh 29.31 in992.6 mb 0.00 in0.0 mm 0.00 in0.0 mm 0.27 in6.9 mm
05:40 PM 50.5°F10.3°C 48.6°F9.2°C 93% 8.3 mph SSW13.4 kmh SSW 9.1 mph14.6 kmh 29.31 in992.6 mb 0.00 in0.0 mm 0.00 in0.0 mm 0.27 in6.9 mm
05:50 PM 50.2°F10.1°C 48.2°F9.0°C 93% 9.6 mph S15.4 kmh S 10.8 mph17.4 kmh 29.31 in992.6 mb 0.00 in0.0 mm 0.00 in0.0 mm 0.27 in6.9 mm
06:00 PM 49.8°F9.9°C 47.9°F8.8°C 93% 8.4 mph SSE13.5 kmh SSE 10.8 mph17.4 kmh 29.31 in992.6 mb 0.00 in0.0 mm 0.00 in0.0 mm 0.27 in6.9 mm
06:10 PM 50.0°F10.0°C 48.3°F9.1°C 94% 9.7 mph S15.6 kmh S 9.1 mph14.6 kmh 29.31 in992.6 mb 0.00 in0.0 mm 0.00 in0.0 mm 0.27 in6.9 mm
06:20 PM 50.2°F10.1°C 48.8°F9.3°C 95% 9.7 mph S15.6 kmh S 10.1 mph16.3 kmh 29.32 in992.9 mb 0.00 in0.0 mm 0.00 in0.0 mm 0.27 in6.9 mm
06:30 PM 50.4°F10.2°C 49.0°F9.4°C 95% 11.5 mph SSE18.5 kmh SSE 13.3 mph21.4 kmh 29.32 in992.9 mb 0.00 in0.0 mm 0.00 in0.0 mm 0.27 in6.9 mm
06:40 PM 50.0°F10.0°C 48.3°F9.1°C 94% 10.1 mph S16.3 kmh S 11.8 mph19.0 kmh 29.32 in992.9 mb 0.00 in0.0 mm 0.00 in0.0 mm 0.27 in6.9 mm
06:50 PM 50.0°F10.0°C 48.3°F9.1°C 94% 11.7 mph S18.8 kmh S 12.5 mph20.1 kmh 29.32 in992.9 mb 0.00 in0.0 mm 0.00 in0.0 mm 0.27 in6.9 mm
07:00 PM 50.5°F10.3°C 48.9°F9.4°C 94% 12.8 mph S20.6 kmh S 12.5 mph20.1 kmh 29.33 in993.2 mb 0.00 in0.0 mm 0.00 in0.0 mm 0.27 in6.9 mm
07:10 PM 50.0°F10.0°C 48.3°F9.1°C 94% 14.6 mph S23.5 kmh S 13.3 mph21.4 kmh 29.33 in993.2 mb 0.00 in0.0 mm 0.00 in0.0 mm 0.27 in6.9 mm
07:20 PM 49.6°F9.8°C 48.0°F8.9°C 94% 12.6 mph SW20.3 kmh SW 13.3 mph21.4 kmh 29.34 in993.6 mb 0.00 in0.0 mm 0.00 in0.0 mm 0.27 in6.9 mm
07:30 PM 49.5°F9.7°C 48.1°F8.9°C 95% 12.2 mph S19.6 kmh S 12.5 mph20.1 kmh 29.33 in993.2 mb 0.00 in0.0 mm 0.00 in0.0 mm 0.27 in6.9 mm
07:40 PM 48.9°F9.4°C 47.8°F8.8°C 96% 14.2 mph SSE22.9 kmh SSE 13.3 mph21.4 kmh 29.33 in993.2 mb 0.00 in0.0 mm 0.00 in0.0 mm 0.27 in6.9 mm
07:50 PM 48.6°F9.2°C 47.5°F8.6°C 96% 9.8 mph SSE15.8 kmh SSE 13.3 mph21.4 kmh 29.33 in993.2 mb 0.00 in0.0 mm 0.00 in0.0 mm 0.27 in6.9 mm
08:00 PM 48.6°F9.2°C 47.7°F8.7°C 97% 7.7 mph S12.4 kmh S 7.6 mph12.2 kmh 29.32 in992.9 mb 0.00 in0.0 mm 0.00 in0.0 mm 0.27 in6.9 mm
08:10 PM 48.6°F9.2°C 47.7°F8.7°C 97% 7.8 mph W12.6 kmh W 8.4 mph13.5 kmh 29.33 in993.2 mb 0.00 in0.0 mm 0.00 in0.0 mm 0.27 in6.9 mm
08:20 PM 48.2°F9.0°C 47.4°F8.6°C 97% 5.9 mph SW9.5 kmh SW 5.9 mph9.5 kmh 29.34 in993.6 mb 0.00 in0.0 mm 0.00 in0.0 mm 0.27 in6.9 mm
08:30 PM 47.8°F8.8°C 47.0°F8.3°C 97% 6.9 mph SSW11.1 kmh SSW 7.6 mph12.2 kmh 29.34 in993.6 mb 0.00 in0.0 mm 0.00 in0.0 mm 0.27 in6.9 mm
08:40 PM 47.5°F8.6°C 46.7°F8.2°C 97% 6.7 mph S10.8 kmh S 7.6 mph12.2 kmh 29.35 in993.9 mb 0.00 in0.0 mm 0.00 in0.0 mm 0.27 in6.9 mm
08:50 PM 47.3°F8.5°C 46.5°F8.1°C 97% 5.0 mph SW8.0 kmh SW 7.6 mph12.2 kmh 29.35 in993.9 mb 0.00 in0.0 mm 0.00 in0.0 mm 0.27 in6.9 mm
09:00 PM 47.3°F8.5°C 46.8°F8.2°C 98% 5.5 mph SW8.9 kmh SW 7.6 mph12.2 kmh 29.35 in993.9 mb 0.00 in0.0 mm 0.00 in0.0 mm 0.27 in6.9 mm
09:10 PM 47.3°F8.5°C 46.8°F8.2°C 98% 4.7 mph S7.6 kmh S 7.6 mph12.2 kmh 29.36 in994.2 mb 0.00 in0.0 mm 0.00 in0.0 mm 0.27 in6.9 mm
09:20 PM 46.9°F8.3°C 46.4°F8.0°C 98% 4.5 mph SSW7.2 kmh SSW 5.9 mph9.5 kmh 29.36 in994.2 mb 0.00 in0.0 mm 0.00 in0.0 mm 0.27 in6.9 mm
09:30 PM 46.6°F8.1°C 46.0°F7.8°C 98% 4.0 mph WSW6.4 kmh WSW 4.9 mph7.9 kmh 29.37 in994.6 mb 0.00 in0.0 mm 0.00 in0.0 mm 0.27 in6.9 mm
09:40 PM 46.8°F8.2°C 46.2°F7.9°C 98% 5.0 mph SW8.0 kmh SW 5.9 mph9.5 kmh 29.37 in994.6 mb 0.00 in0.0 mm 0.00 in0.0 mm 0.27 in6.9 mm
09:50 PM 46.4°F8.0°C 45.9°F7.7°C 98% 3.4 mph W5.5 kmh W 4.2 mph6.8 kmh 29.37 in994.6 mb 0.00 in0.0 mm 0.00 in0.0 mm 0.27 in6.9 mm
10:00 PM 45.9°F7.7°C 45.3°F7.4°C 98% 3.3 mph W5.3 kmh W 4.9 mph7.9 kmh 29.37 in994.6 mb 0.00 in0.0 mm 0.00 in0.0 mm 0.27 in6.9 mm
10:10 PM 45.3°F7.4°C 44.5°F6.9°C 97% 2.8 mph E4.5 kmh E 2.5 mph4.0 kmh 29.38 in994.9 mb 0.00 in0.0 mm 0.00 in0.0 mm 0.27 in6.9 mm
10:20 PM 45.0°F7.2°C 44.2°F6.8°C 97% 3.1 mph SW5.0 kmh SW 4.2 mph6.8 kmh 29.37 in994.6 mb 0.00 in0.0 mm 0.00 in0.0 mm 0.27 in6.9 mm
10:30 PM 44.6°F7.0°C 43.8°F6.6°C 97% 2.8 mph SW4.5 kmh SW 3.4 mph5.5 kmh 29.37 in994.6 mb 0.00 in0.0 mm 0.00 in0.0 mm 0.27 in6.9 mm
10:40 PM 44.4°F6.9°C 43.6°F6.4°C 97% 2.3 mph W3.7 kmh W 2.5 mph4.0 kmh 29.38 in994.9 mb 0.00 in0.0 mm 0.00 in0.0 mm 0.27 in6.9 mm
10:50 PM 44.1°F6.7°C 43.3°F6.3°C 97% 1.7 mph WSW2.7 kmh WSW 3.4 mph5.5 kmh 29.38 in994.9 mb 0.00 in0.0 mm 0.00 in0.0 mm 0.27 in6.9 mm
11:00 PM 43.9°F6.6°C 43.1°F6.2°C 97% 2.6 mph WSW4.2 kmh WSW 3.4 mph5.5 kmh 29.38 in994.9 mb 0.00 in0.0 mm 0.00 in0.0 mm 0.27 in6.9 mm
11:10 PM 43.5°F6.4°C 42.7°F5.9°C 97% 1.3 mph SW2.1 kmh SW 2.5 mph4.0 kmh 29.38 in994.9 mb 0.00 in0.0 mm 0.00 in0.0 mm 0.27 in6.9 mm
11:20 PM 43.3°F6.3°C 42.3°F5.7°C 96% 2.2 mph SW3.5 kmh SW 4.2 mph6.8 kmh 29.38 in994.9 mb 0.00 in0.0 mm 0.00 in0.0 mm 0.27 in6.9 mm
11:30 PM 43.2°F6.2°C 42.1°F5.6°C 96% 3.3 mph S5.3 kmh S 4.2 mph6.8 kmh 29.38 in994.9 mb 0.00 in0.0 mm 0.00 in0.0 mm 0.27 in6.9 mm
11:40 PM 43.2°F6.2°C 42.1°F5.6°C 96% 2.5 mph WSW4.0 kmh WSW 4.2 mph6.8 kmh 29.38 in994.9 mb 0.00 in0.0 mm 0.00 in0.0 mm 0.27 in6.9 mm
11:50 PM 42.8°F6.0°C 41.7°F5.4°C 96% 1.8 mph S2.9 kmh S 3.4 mph5.5 kmh 29.38 in994.9 mb 0.00 in0.0 mm 0.00 in0.0 mm 0.27 in6.9 mm